createdAt,value
2022-12-09T00:01:12.678Z,183.98
2022-12-09T00:03:42.828Z,160.50
2022-12-09T00:06:13.237Z,148.15
2022-12-09T00:08:41.577Z,121.40
2022-12-09T00:11:09.747Z,103.22
2022-12-09T00:13:38.470Z,99.50
2022-12-09T00:16:07.375Z,92.38
2022-12-09T00:18:35.940Z,101.40
2022-12-09T00:21:14.568Z,109.47
2022-12-09T00:23:42.892Z,89.38
2022-12-09T00:26:11.367Z,94.55
2022-12-09T00:28:39.505Z,91.90
2022-12-09T00:31:09.816Z,98.07
2022-12-09T00:33:37.850Z,94.90
2022-12-09T00:36:07.411Z,86.80
2022-12-09T00:38:36.828Z,82.15
2022-12-09T00:41:05.684Z,72.32
2022-12-09T00:43:34.205Z,79.35
2022-12-09T00:46:02.977Z,91.55
2022-12-09T00:48:34.296Z,92.13
2022-12-09T00:51:02.789Z,94.50
2022-12-09T00:53:31.022Z,101.95
2022-12-09T00:56:00.441Z,96.55
2022-12-09T00:58:28.625Z,106.22
2022-12-09T01:00:56.981Z,114.53
2022-12-09T01:03:25.392Z,108.20
2022-12-09T01:05:53.979Z,97.50
2022-12-09T01:08:22.364Z,111.28
2022-12-09T01:10:50.483Z,121.15
2022-12-09T01:13:19.766Z,92.00
2022-12-09T01:15:47.867Z,116.70
2022-12-09T01:18:16.373Z,108.63
2022-12-09T01:20:44.388Z,100.05
2022-12-09T01:23:12.647Z,106.38
2022-12-09T01:25:40.709Z,107.75
2022-12-09T01:28:09.040Z,100.05
2022-12-09T01:30:38.628Z,100.32
2022-12-09T01:33:06.926Z,100.03
2022-12-09T01:35:35.454Z,104.18
2022-12-09T01:38:03.479Z,96.28
2022-12-09T01:40:31.626Z,104.05
2022-12-09T01:42:59.580Z,105.63
2022-12-09T01:45:43.038Z,102.60
2022-12-09T01:48:14.186Z,100.05
2022-12-09T01:50:46.859Z,107.80
2022-12-09T01:53:16.148Z,106.00
2022-12-09T01:55:45.132Z,100.13
2022-12-09T01:58:14.137Z,99.55
2022-12-09T02:00:44.130Z,105.15
2022-12-09T02:03:12.722Z,98.53
2022-12-09T02:05:41.207Z,107.78
2022-12-09T02:08:13.351Z,99.03
2022-12-09T02:10:48.823Z,109.70
2022-12-09T02:13:23.638Z,101.57
2022-12-09T02:15:55.876Z,109.55
2022-12-09T02:18:27.949Z,101.93
2022-12-09T02:20:59.323Z,106.68
2022-12-09T02:23:31.355Z,96.57
2022-12-09T02:26:08.141Z,109.72
2022-12-09T02:28:57.564Z,95.95
2022-12-09T02:31:40.816Z,112.45
2022-12-09T02:34:16.000Z,103.97
2022-12-09T02:36:50.592Z,99.93
2022-12-09T02:39:19.810Z,95.25
2022-12-09T02:41:48.998Z,111.07
2022-12-09T02:44:20.026Z,104.95
2022-12-09T02:46:48.248Z,102.57
2022-12-09T02:49:17.742Z,109.32
2022-12-09T02:51:46.285Z,115.03
2022-12-09T02:54:15.953Z,99.10
2022-12-09T02:56:47.355Z,103.65
2022-12-09T02:59:15.432Z,111.13
2022-12-09T03:01:50.018Z,114.63
2022-12-09T03:04:21.895Z,117.90
2022-12-09T03:06:53.079Z,114.72
2022-12-09T03:09:23.411Z,112.73
2022-12-09T03:11:52.039Z,123.40
2022-12-09T03:14:23.142Z,118.50
2022-12-09T03:16:54.594Z,117.40
2022-12-09T03:19:27.262Z,115.60
2022-12-09T03:21:58.502Z,106.93
2022-12-09T03:24:29.567Z,100.85
2022-12-09T03:26:58.685Z,112.18
2022-12-09T03:29:28.050Z,127.57
2022-12-09T03:31:57.083Z,118.57
2022-12-09T03:34:31.330Z,102.68
2022-12-09T03:37:00.645Z,107.82
2022-12-09T03:39:33.499Z,125.20
2022-12-09T03:42:05.043Z,117.57
2022-12-09T03:44:37.046Z,109.65
2022-12-09T03:47:06.106Z,115.13
2022-12-09T03:49:35.784Z,114.70
2022-12-09T03:52:07.276Z,117.82
2022-12-09T03:54:40.127Z,121.80
2022-12-09T03:57:17.013Z,120.53
2022-12-09T03:59:52.021Z,116.38
2022-12-09T04:02:20.219Z,118.20
2022-12-09T04:04:50.379Z,116.68
2022-12-09T04:07:18.964Z,109.32
2022-12-09T04:09:47.107Z,106.47
2022-12-09T04:12:15.229Z,109.97
2022-12-09T04:14:43.278Z,112.60
2022-12-09T04:17:12.734Z,125.63
2022-12-09T04:19:40.959Z,120.82
2022-12-09T04:22:10.589Z,125.15
2022-12-09T04:24:38.917Z,127.43
2022-12-09T04:27:07.022Z,124.07
2022-12-09T04:29:35.071Z,122.22
2022-12-09T04:32:03.096Z,120.18
2022-12-09T04:34:31.452Z,113.90
2022-12-09T04:36:59.501Z,104.10
2022-12-09T04:39:29.212Z,118.47
2022-12-09T04:41:57.491Z,110.95
2022-12-09T04:44:26.032Z,128.15
2022-12-09T04:46:54.256Z,126.18
2022-12-09T04:49:22.307Z,123.93
2022-12-09T04:51:50.342Z,120.28
2022-12-09T04:54:18.547Z,120.47
2022-12-09T04:56:49.535Z,121.53
2022-12-09T04:59:17.575Z,129.18
2022-12-09T05:01:45.826Z,118.65
2022-12-09T05:04:14.209Z,121.00
2022-12-09T05:06:42.894Z,123.38
2022-12-09T05:09:13.412Z,124.93
2022-12-09T05:11:42.145Z,123.88
2022-12-09T05:14:11.907Z,119.60
2022-12-09T05:16:40.040Z,118.65
2022-12-09T05:19:08.500Z,121.90
2022-12-09T05:21:36.946Z,115.20
2022-12-09T05:24:06.051Z,133.48
2022-12-09T05:26:34.498Z,125.68
2022-12-09T05:29:02.558Z,127.40
2022-12-09T05:31:31.955Z,139.77
2022-12-09T05:34:00.631Z,131.35
2022-12-09T05:36:29.138Z,144.50
2022-12-09T05:38:57.386Z,139.13
2022-12-09T05:41:25.982Z,143.85
2022-12-09T05:43:54.818Z,120.68
2022-12-09T05:46:23.485Z,125.43
2022-12-09T05:48:53.213Z,122.10
2022-12-09T05:51:24.653Z,127.70
2022-12-09T05:53:53.950Z,132.50
2022-12-09T05:56:23.457Z,137.35
2022-12-09T05:58:55.982Z,137.20
2022-12-09T06:01:25.034Z,134.95
2022-12-09T06:03:55.483Z,145.57
2022-12-09T06:06:26.783Z,139.60
2022-12-09T06:08:56.323Z,148.52
2022-12-09T06:11:24.864Z,154.57
2022-12-09T06:13:53.158Z,155.35
2022-12-09T06:16:23.335Z,149.88
2022-12-09T06:18:51.882Z,164.90
2022-12-09T06:21:22.231Z,151.82
2022-12-09T06:23:51.571Z,176.25
2022-12-09T06:26:21.530Z,177.25
2022-12-09T06:28:50.240Z,183.10
2022-12-09T06:31:18.905Z,212.38
2022-12-09T06:33:56.339Z,170.00
2022-12-09T06:36:28.095Z,170.63
2022-12-09T06:38:57.919Z,183.85
2022-12-09T06:41:26.950Z,309.00
2022-12-09T06:43:57.774Z,305.95
2022-12-09T06:46:27.074Z,367.65
2022-12-09T06:48:56.622Z,509.23
2022-12-09T06:51:26.881Z,450.90
2022-12-09T06:53:55.364Z,446.17
2022-12-09T06:56:25.415Z,344.52
2022-12-09T06:58:54.178Z,495.67
2022-12-09T07:01:24.237Z,405.70
2022-12-09T07:03:54.666Z,354.92
2022-12-09T07:06:28.762Z,473.65
2022-12-09T07:08:58.293Z,370.92
2022-12-09T07:11:26.606Z,367.80
2022-12-09T07:13:54.854Z,463.05
2022-12-09T07:16:23.813Z,455.95
2022-12-09T07:18:53.118Z,251.38
2022-12-09T07:21:22.904Z,277.50
2022-12-09T07:23:52.620Z,301.67
2022-12-09T07:26:21.462Z,332.33
2022-12-09T07:28:50.488Z,328.17
2022-12-09T07:31:20.762Z,345.42
2022-12-09T07:33:50.039Z,392.65
2022-12-09T07:36:21.206Z,260.98
2022-12-09T07:38:50.340Z,428.58
2022-12-09T07:41:20.324Z,428.52
2022-12-09T07:43:48.973Z,436.55
2022-12-09T07:46:19.453Z,277.92
2022-12-09T07:48:49.182Z,444.77
2022-12-09T07:51:17.933Z,445.67
2022-12-09T07:53:46.922Z,346.85
2022-12-09T07:56:16.953Z,200.23
2022-12-09T07:58:48.644Z,543.38
2022-12-09T08:01:19.061Z,250.05
2022-12-09T08:03:48.461Z,337.98
2022-12-09T08:06:19.216Z,436.15
2022-12-09T08:08:48.459Z,315.08
2022-12-09T08:11:18.828Z,437.52
2022-12-09T08:13:49.053Z,238.48
2022-12-09T08:16:19.832Z,269.67
2022-12-09T08:18:49.604Z,470.10
2022-12-09T08:21:19.840Z,232.70
2022-12-09T08:23:48.727Z,305.70
2022-12-09T08:26:19.211Z,271.77
2022-12-09T08:28:49.484Z,248.93
2022-12-09T08:31:21.127Z,310.98
2022-12-09T08:36:20.563Z,375.90
2022-12-09T08:38:49.459Z,281.73
2022-12-09T08:41:19.433Z,343.88
2022-12-09T08:43:49.257Z,442.08
2022-12-09T08:46:17.895Z,202.50
2022-12-09T08:48:47.396Z,211.07
2022-12-09T08:51:16.443Z,202.32
2022-12-09T08:53:45.652Z,206.35
2022-12-09T08:56:19.553Z,178.13
2022-12-09T08:58:49.458Z,189.68
2022-12-09T09:01:19.640Z,155.70
2022-12-09T09:03:49.299Z,214.32
2022-12-09T09:06:22.221Z,181.35
2022-12-09T09:08:50.981Z,145.13
2022-12-09T09:11:20.781Z,163.45
2022-12-09T09:13:52.415Z,180.90
2022-12-09T09:16:22.857Z,139.30
2022-12-09T09:18:51.795Z,141.13
2022-12-09T09:21:28.473Z,137.93
2022-12-09T09:23:57.128Z,134.95
2022-12-09T09:26:28.177Z,124.65
2022-12-09T09:28:58.614Z,129.88
2022-12-09T09:31:26.804Z,143.70
2022-12-09T09:33:56.367Z,122.82
2022-12-09T09:36:25.887Z,116.43
2022-12-09T09:38:55.307Z,127.70
2022-12-09T09:41:29.332Z,121.97
2022-12-09T09:43:59.060Z,117.57
2022-12-09T09:46:36.047Z,139.23
2022-12-09T09:49:05.779Z,119.70
2022-12-09T09:51:35.090Z,142.10
2022-12-09T09:54:08.466Z,126.45
2022-12-09T09:56:41.146Z,127.13
2022-12-09T10:01:47.856Z,118.00
2022-12-09T10:04:21.869Z,132.85
2022-12-09T10:06:53.399Z,100.53
2022-12-09T10:09:24.858Z,110.53
2022-12-09T10:11:59.992Z,103.55
2022-12-09T10:14:42.876Z,97.38
2022-12-09T10:17:19.417Z,100.95
2022-12-09T10:19:49.717Z,136.50
2022-12-09T10:22:21.227Z,119.13
2022-12-09T10:24:51.762Z,125.40
2022-12-09T10:27:29.133Z,109.10
2022-12-09T10:30:00.194Z,132.98
2022-12-09T10:32:33.558Z,207.60
2022-12-09T10:35:03.367Z,246.93
2022-12-09T10:37:35.227Z,102.03
2022-12-09T10:40:24.884Z,125.25
2022-12-09T10:43:13.050Z,258.95
2022-12-09T10:46:16.639Z,137.50
2022-12-09T10:48:38.780Z,119.32
2022-12-09T10:51:14.172Z,104.15
2022-12-09T10:53:48.564Z,108.10
2022-12-09T10:56:22.104Z,144.80
2022-12-09T10:58:50.257Z,95.25
2022-12-09T11:01:20.224Z,86.85
2022-12-09T11:03:50.901Z,79.43
2022-12-09T11:06:26.091Z,83.88
2022-12-09T11:08:56.878Z,77.22
2022-12-09T11:11:46.374Z,128.50
2022-12-09T11:14:23.082Z,104.55
2022-12-09T11:16:54.495Z,125.05
2022-12-09T11:19:33.462Z,224.45
2022-12-09T11:22:38.291Z,286.15
2022-12-09T11:25:25.076Z,131.43
2022-12-09T11:27:55.399Z,154.55
2022-12-09T11:30:27.125Z,130.25
2022-12-09T11:35:34.121Z,122.00
2022-12-09T11:38:05.464Z,93.70
2022-12-09T11:40:34.590Z,139.23
2022-12-09T11:43:03.480Z,94.85
2022-12-09T11:45:35.219Z,145.00
2022-12-09T11:48:27.512Z,132.50
2022-12-09T11:50:56.294Z,129.52
2022-12-09T11:53:29.585Z,122.72
2022-12-09T11:56:01.171Z,95.10
2022-12-09T11:58:32.057Z,93.63
2022-12-09T12:01:04.457Z,90.13
2022-12-09T12:03:38.879Z,176.40
2022-12-09T12:06:10.647Z,131.98
2022-12-09T12:08:45.200Z,91.07
2022-12-09T12:11:15.683Z,102.57
2022-12-09T12:13:46.349Z,95.13
2022-12-09T12:16:19.323Z,105.88
2022-12-09T12:18:52.420Z,95.28
2022-12-09T12:21:25.284Z,105.15
2022-12-09T12:24:32.617Z,89.35
2022-12-09T12:27:10.060Z,90.22
2022-12-09T12:29:47.539Z,110.05
2022-12-09T12:32:26.737Z,114.07
2022-12-09T12:35:15.072Z,107.35
2022-12-09T12:37:54.138Z,109.70
2022-12-09T12:40:29.088Z,105.03
2022-12-09T12:43:21.227Z,119.03
2022-12-09T12:46:11.273Z,99.05
2022-12-09T12:48:49.225Z,113.60
2022-12-09T12:51:26.281Z,93.78
2022-12-09T12:53:58.671Z,82.22
2022-12-09T12:56:30.716Z,104.53
2022-12-09T12:59:05.435Z,87.30
2022-12-09T13:01:35.925Z,99.05
2022-12-09T13:04:14.454Z,106.53
2022-12-09T13:06:48.259Z,110.00
2022-12-09T13:09:20.079Z,107.05
2022-12-09T13:11:58.678Z,104.05
2022-12-09T13:14:32.023Z,101.53
2022-12-09T13:17:02.187Z,110.32
2022-12-09T13:19:35.592Z,102.78
2022-12-09T13:22:05.595Z,98.45
2022-12-09T13:24:42.215Z,101.85
2022-12-09T13:27:15.495Z,103.50
2022-12-09T13:29:46.576Z,93.20
2022-12-09T13:32:27.188Z,89.85
2022-12-09T13:35:00.504Z,81.25
2022-12-09T13:37:57.699Z,93.95
2022-12-09T13:40:31.779Z,87.07
2022-12-09T13:43:13.351Z,86.20
2022-12-09T13:45:50.930Z,81.90
2022-12-09T13:48:52.088Z,88.55
2022-12-09T13:51:21.003Z,91.75
2022-12-09T13:53:54.322Z,79.85
2022-12-09T13:56:28.275Z,80.68
2022-12-09T13:59:17.823Z,74.20
2022-12-09T14:01:49.278Z,81.00
2022-12-09T14:04:22.451Z,73.40
2022-12-09T14:06:56.012Z,62.75
2022-12-09T14:09:39.728Z,66.82
2022-12-09T14:12:10.107Z,74.55
2022-12-09T14:14:56.488Z,78.72
2022-12-09T14:17:58.989Z,67.95
2022-12-09T14:20:32.484Z,79.13
2022-12-09T14:23:24.623Z,74.10
2022-12-09T14:26:02.796Z,62.28
2022-12-09T14:28:55.309Z,66.82
2022-12-09T14:31:52.252Z,66.22
2022-12-09T14:34:29.549Z,70.70
2022-12-09T14:37:06.623Z,81.38
2022-12-09T14:39:42.252Z,66.30
2022-12-09T14:42:19.697Z,83.85
2022-12-09T14:44:52.239Z,88.57
2022-12-09T14:47:24.048Z,82.95
2022-12-09T14:49:54.067Z,88.15
2022-12-09T14:52:24.862Z,87.05
2022-12-09T14:54:54.143Z,91.35
2022-12-09T14:57:26.193Z,78.97
2022-12-09T15:02:26.393Z,73.55
2022-12-09T15:04:55.573Z,79.90
2022-12-09T15:07:25.947Z,74.45
2022-12-09T15:09:56.272Z,71.03
2022-12-09T15:12:31.288Z,83.93
2022-12-09T15:15:01.359Z,79.07
2022-12-09T15:17:32.440Z,77.50
2022-12-09T15:20:01.399Z,86.80
2022-12-09T15:22:31.665Z,83.75
2022-12-09T15:25:02.258Z,85.68
2022-12-09T15:27:31.825Z,88.90
2022-12-09T15:29:59.782Z,80.45
2022-12-09T15:32:29.490Z,85.05
2022-12-09T15:35:16.590Z,81.93
2022-12-09T15:37:45.801Z,79.93
2022-12-09T15:40:16.414Z,87.63
2022-12-09T15:42:48.835Z,80.22
2022-12-09T15:45:18.223Z,96.45
2022-12-09T15:47:49.009Z,93.82
2022-12-09T15:50:21.462Z,100.75
2022-12-09T15:52:51.366Z,104.32
2022-12-09T15:55:21.550Z,91.68
2022-12-09T15:57:53.729Z,109.70
2022-12-09T16:00:21.980Z,86.50
2022-12-09T16:02:50.479Z,94.10
2022-12-09T16:05:23.758Z,91.45
2022-12-09T16:07:56.888Z,102.38
2022-12-09T16:10:27.013Z,87.93
2022-12-09T16:13:11.185Z,82.07
2022-12-09T16:15:50.051Z,80.45
2022-12-09T16:18:22.542Z,87.95
2022-12-09T16:20:59.045Z,86.55
2022-12-09T16:23:27.839Z,87.18
2022-12-09T16:26:06.320Z,78.40
2022-12-09T16:28:36.239Z,80.13
2022-12-09T16:31:05.770Z,90.28
2022-12-09T16:33:39.319Z,95.03
2022-12-09T16:36:10.104Z,95.75
2022-12-09T16:38:38.363Z,89.15
2022-12-09T16:41:09.491Z,98.97
2022-12-09T16:43:53.935Z,87.70
2022-12-09T16:46:36.231Z,86.93
2022-12-09T16:49:05.280Z,96.00
2022-12-09T16:51:33.588Z,103.45
2022-12-09T16:54:02.131Z,95.30
2022-12-09T16:56:31.835Z,95.95
2022-12-09T16:59:01.258Z,96.55
2022-12-09T17:01:33.849Z,78.43
2022-12-09T17:04:05.055Z,97.10
2022-12-09T17:06:33.196Z,88.57
2022-12-09T17:09:01.201Z,100.00
2022-12-09T17:11:29.210Z,91.38
2022-12-09T17:13:57.295Z,101.60
2022-12-09T17:16:26.965Z,97.20
2022-12-09T17:18:55.092Z,83.68
2022-12-09T17:21:23.399Z,97.88
2022-12-09T17:23:51.342Z,85.22
2022-12-09T17:26:20.974Z,88.68
2022-12-09T17:28:49.866Z,88.25
2022-12-09T17:31:19.522Z,91.25
2022-12-09T17:33:49.007Z,94.63
2022-12-09T17:36:19.799Z,89.68
2022-12-09T17:38:47.914Z,96.35
2022-12-09T17:41:19.349Z,87.15
2022-12-09T17:43:47.562Z,92.90
2022-12-09T17:46:16.032Z,84.68
2022-12-09T17:48:44.055Z,77.53
2022-12-09T17:51:17.754Z,84.07
2022-12-09T17:53:46.574Z,87.88
2022-12-09T17:56:16.769Z,84.55
2022-12-09T17:58:45.034Z,84.53
2022-12-09T18:01:15.131Z,99.53
2022-12-09T18:04:04.418Z,89.20
2022-12-09T18:06:34.386Z,91.57
2022-12-09T18:09:03.920Z,86.68
2022-12-09T18:11:32.013Z,90.50
2022-12-09T18:14:01.420Z,98.40
2022-12-09T18:16:30.652Z,95.40
2022-12-09T18:19:02.491Z,95.28
2022-12-09T18:21:31.848Z,87.10
2022-12-09T18:23:59.858Z,95.85
2022-12-09T18:26:31.366Z,97.05
2022-12-09T18:29:02.391Z,82.78
2022-12-09T18:31:30.763Z,104.43
2022-12-09T18:33:58.773Z,109.50
2022-12-09T18:36:29.128Z,100.75
2022-12-09T18:38:59.395Z,106.43
2022-12-09T18:41:29.579Z,101.07
2022-12-09T18:43:59.864Z,101.28
2022-12-09T18:46:29.644Z,106.63
2022-12-09T18:48:58.501Z,116.40
2022-12-09T18:51:26.991Z,95.15
2022-12-09T18:53:55.459Z,98.40
2022-12-09T18:56:24.878Z,93.50
2022-12-09T18:59:09.196Z,100.95
2022-12-09T19:01:40.383Z,108.10
2022-12-09T19:04:13.326Z,99.03
2022-12-09T19:06:43.499Z,96.15
2022-12-09T19:09:13.844Z,110.72
2022-12-09T19:11:44.143Z,111.85
2022-12-09T19:14:12.293Z,106.75
2022-12-09T19:16:40.795Z,114.82
2022-12-09T19:19:10.586Z,107.07
2022-12-09T19:21:39.311Z,103.18
2022-12-09T19:24:12.947Z,108.53
2022-12-09T19:26:42.660Z,109.60
2022-12-09T19:29:13.174Z,106.10
2022-12-09T19:31:43.130Z,100.63
2022-12-09T19:34:14.074Z,109.32
2022-12-09T19:36:42.513Z,98.18
2022-12-09T19:39:11.301Z,103.47
2022-12-09T19:41:40.780Z,94.93
2022-12-09T19:44:09.082Z,110.65
2022-12-09T19:46:38.817Z,104.95
2022-12-09T19:49:07.012Z,109.68
2022-12-09T19:51:35.021Z,109.05
2022-12-09T19:54:03.190Z,107.90
2022-12-09T19:56:31.230Z,96.60
2022-12-09T19:59:00.254Z,110.68
2022-12-09T20:01:31.772Z,109.95
2022-12-09T20:04:18.993Z,122.68
2022-12-09T20:06:51.594Z,103.78
2022-12-09T20:09:24.407Z,99.90
2022-12-09T20:11:52.944Z,103.97
2022-12-09T20:14:21.461Z,103.70
2022-12-09T20:16:49.580Z,103.50
2022-12-09T20:19:19.733Z,100.82
2022-12-09T20:21:47.763Z,91.32
2022-12-09T20:24:15.844Z,120.38
2022-12-09T20:26:44.302Z,92.70
2022-12-09T20:29:12.974Z,82.93
2022-12-09T20:31:42.332Z,97.05
2022-12-09T20:34:16.047Z,100.28
2022-12-09T20:36:46.708Z,103.57
2022-12-09T20:39:17.423Z,106.05
2022-12-09T20:41:45.998Z,101.10
2022-12-09T20:44:15.269Z,89.97
2022-12-09T20:46:46.685Z,90.22
2022-12-09T20:49:14.670Z,94.50
2022-12-09T20:51:45.100Z,93.70
2022-12-09T20:54:15.780Z,87.53
2022-12-09T20:56:43.881Z,97.68
2022-12-09T20:59:13.636Z,89.93
2022-12-09T21:01:43.549Z,83.57
2022-12-09T21:04:11.796Z,102.32
2022-12-09T21:06:41.673Z,85.45
2022-12-09T21:09:11.458Z,92.20
2022-12-09T21:11:40.905Z,84.95
2022-12-09T21:14:10.910Z,87.13
2022-12-09T21:16:40.607Z,84.93
2022-12-09T21:19:11.861Z,91.90
2022-12-09T21:21:41.450Z,100.07
2022-12-09T21:24:10.803Z,81.85
2022-12-09T21:26:39.422Z,83.75
2022-12-09T21:29:09.397Z,88.32
2022-12-09T21:31:38.729Z,82.05
2022-12-09T21:34:08.112Z,75.63
2022-12-09T21:36:37.410Z,83.05
2022-12-09T21:39:06.375Z,79.95
2022-12-09T21:41:36.372Z,85.22
2022-12-09T21:44:05.289Z,79.25
2022-12-09T21:46:36.377Z,81.07
2022-12-09T21:49:06.451Z,85.90
2022-12-09T21:51:36.258Z,87.25
2022-12-09T21:54:04.886Z,72.20
2022-12-09T21:56:35.763Z,79.82
2022-12-09T21:59:05.876Z,79.18
2022-12-09T22:01:37.098Z,78.85
2022-12-09T22:04:06.747Z,82.03
2022-12-09T22:06:35.542Z,81.57
2022-12-09T22:09:04.708Z,86.15
2022-12-09T22:11:35.240Z,78.38
2022-12-09T22:14:04.102Z,82.22
2022-12-09T22:16:35.668Z,80.30
2022-12-09T22:19:06.098Z,73.15
2022-12-09T22:21:34.705Z,75.60
2022-12-09T22:24:05.037Z,81.40
2022-12-09T22:26:33.681Z,73.43
2022-12-09T22:29:03.440Z,84.13
2022-12-09T22:31:32.958Z,72.05
2022-12-09T22:34:04.622Z,73.78
2022-12-09T22:36:33.014Z,76.78
2022-12-09T22:39:01.355Z,76.57
2022-12-09T22:41:30.428Z,71.82
2022-12-09T22:43:58.784Z,67.72
2022-12-09T22:46:28.540Z,74.30
2022-12-09T22:48:56.931Z,68.13
2022-12-09T22:51:27.981Z,68.28
2022-12-09T22:53:57.258Z,71.45
2022-12-09T22:56:26.258Z,72.78
2022-12-09T22:58:54.738Z,72.80
2022-12-09T23:01:24.325Z,72.30
2022-12-09T23:03:52.461Z,64.57
2022-12-09T23:06:20.532Z,66.05
2022-12-09T23:08:50.125Z,77.57
2022-12-09T23:11:20.221Z,72.50
2022-12-09T23:13:49.311Z,72.28
2022-12-09T23:16:19.703Z,80.78
2022-12-09T23:18:48.311Z,74.97
2022-12-09T23:21:17.746Z,78.22
2022-12-09T23:23:46.193Z,72.35
2022-12-09T23:26:17.881Z,68.32
2022-12-09T23:28:47.895Z,65.10
2022-12-09T23:31:17.510Z,60.70
2022-12-09T23:33:47.030Z,67.68
2022-12-09T23:36:16.863Z,67.55
2022-12-09T23:38:45.657Z,66.55
2022-12-09T23:41:17.269Z,65.78
2022-12-09T23:43:46.854Z,62.83
2022-12-09T23:46:17.055Z,75.97
2022-12-09T23:48:45.961Z,68.93
2022-12-09T23:51:16.053Z,65.35
2022-12-09T23:53:44.964Z,67.75
2022-12-09T23:56:16.091Z,62.10
2022-12-09T23:58:44.299Z,69.33
